Time;durP1;ratioP1;P1;durP2;ratioP2;P2;SDS_P1;SDS_P2;PMS_P1;PMS_P2;Temp;Humidity;BMP_temperature;BMP_pressure;BME280_temperature;BME280_humidity;BME280_pressure;Samples;Min_cycle;Max_cycle;Signal;HPM_P1;HPM_P2
2022/05/20 00:00:23;;;;;;;35.03;28.90;;;;;;;;;;2075953;28;20180;-53
2022/05/20 00:01:23;;;;;;;33.63;28.20;;;;;;;;;;2075824;28;20255;-51
2022/05/20 00:02:24;;;;;;;34.63;27.95;;;;;;;;;;2076144;28;20661;-52
2022/05/20 00:03:25;;;;;;;34.90;28.80;;;;;;;;;;2076015;28;20252;-57
2022/05/20 00:04:25;;;;;;;33.65;28.42;;;;;;;;;;2075186;28;20185;-51
2022/05/20 00:05:27;;;;;;;32.33;28.77;;;;;;;;;;2075244;28;20268;-53
2022/05/20 00:06:27;;;;;;;32.28;26.75;;;;;;;;;;2074718;28;20166;-51
2022/05/20 00:07:28;;;;;;;32.85;29.10;;;;;;;;;;2074866;28;20197;-54
2022/05/20 00:08:28;;;;;;;32.50;29.00;;;;;;;;;;2074815;28;20573;-52
2022/05/20 00:09:28;;;;;;;32.50;29.05;;;;;;;;;;2074809;28;20547;-55
2022/05/20 00:10:30;;;;;;;31.88;27.75;;;;;;;;;;2075089;28;20180;-56
2022/05/20 00:11:30;;;;;;;33.28;28.35;;;;;;;;;;2074534;28;20176;-54
2022/05/20 00:12:30;;;;;;;34.45;28.38;;;;;;;;;;2074223;28;20169;-56
2022/05/20 00:13:31;;;;;;;32.88;28.38;;;;;;;;;;2074139;28;20223;-53
2022/05/20 00:14:32;;;;;;;34.13;28.90;;;;;;;;;;2074516;28;20256;-54
2022/05/20 00:15:32;;;;;;;34.13;29.42;;;;;;;;;;2073628;28;20173;-54
2022/05/20 00:16:35;;;;;;;35.15;28.17;;;;;;;;;;2074087;28;20169;-54
2022/05/20 00:17:35;;;;;;;34.92;29.50;;;;;;;;;;2073972;28;20167;-54
2022/05/20 00:18:35;;;;;;;32.22;27.80;;;;;;;;;;2065812;28;20193;-55
2022/05/20 00:19:35;;;;;;;35.85;29.40;;;;;;;;;;2074051;28;20263;-53
2022/05/20 00:20:36;;;;;;;33.20;28.88;;;;;;;;;;2074098;28;20165;-56
2022/05/20 00:21:36;;;;;;;32.53;28.35;;;;;;;;;;2073530;28;20188;-57
2022/05/20 00:22:36;;;;;;;37.72;31.48;;;;;;;;;;2074152;28;20180;-53
2022/05/20 00:23:37;;;;;;;34.28;28.17;;;;;;;;;;2074168;28;20311;-53
2022/05/20 00:25:45;;;;;;;36.28;29.52;;;;;;;;;;2074446;28;20177;-56
2022/05/20 00:25:57;;;;;;;36.15;30.92;;;;;;;;;;2074144;28;20157;-55
2022/05/20 00:26:58;;;;;;;35.15;29.38;;;;;;;;;;2074170;28;20260;-53
2022/05/20 00:27:58;;;;;;;36.05;29.35;;;;;;;;;;2074146;28;20236;-57
2022/05/20 00:28:58;;;;;;;40.92;31.15;;;;;;;;;;2074834;28;20663;-52
2022/05/20 00:29:59;;;;;;;37.72;30.08;;;;;;;;;;2073276;28;20201;-52
2022/05/20 00:31:05;;;;;;;35.03;29.90;;;;;;;;;;2074539;28;20169;-53
2022/05/20 00:32:05;;;;;;;41.80;30.73;;;;;;;;;;2070417;28;20197;-52
2022/05/20 00:33:06;;;;;;;34.67;30.02;;;;;;;;;;2074777;28;20304;-53
2022/05/20 00:34:06;;;;;;;33.13;28.70;;;;;;;;;;2073566;28;20207;-55
2022/05/20 00:35:07;;;;;;;35.15;29.27;;;;;;;;;;2073867;28;20180;-53
2022/05/20 00:36:07;;;;;;;36.78;29.58;;;;;;;;;;2074411;28;20165;-53
2022/05/20 00:37:07;;;;;;;38.40;30.42;;;;;;;;;;2074398;28;20187;-52
2022/05/20 00:38:08;;;;;;;34.53;28.95;;;;;;;;;;2074622;28;20177;-51
2022/05/20 00:39:08;;;;;;;32.63;28.75;;;;;;;;;;2074740;28;20208;-51
2022/05/20 00:40:10;;;;;;;34.03;29.98;;;;;;;;;;2074634;28;20183;-56
2022/05/20 00:41:11;;;;;;;32.90;28.35;;;;;;;;;;2074185;28;20317;-56
2022/05/20 00:42:16;;;;;;;32.85;28.70;;;;;;;;;;2074759;28;20177;-52
2022/05/20 00:43:22;;;;;;;34.47;28.33;;;;;;;;;;2074409;28;20165;-57
2022/05/20 00:44:22;;;;;;;38.28;30.40;;;;;;;;;;2073694;28;20161;-51
2022/05/20 00:45:23;;;;;;;37.40;30.55;;;;;;;;;;2073756;28;20165;-56
2022/05/20 00:46:24;;;;;;;33.10;28.90;;;;;;;;;;2073737;28;20169;-58
2022/05/20 00:47:24;;;;;;;32.80;28.33;;;;;;;;;;2073879;28;20249;-53
2022/05/20 00:48:25;;;;;;;36.38;29.52;;;;;;;;;;2074637;28;20220;-57
2022/05/20 00:49:25;;;;;;;36.63;29.45;;;;;;;;;;2066841;28;20237;-58
2022/05/20 00:50:26;;;;;;;33.85;29.15;;;;;;;;;;2081279;28;20180;-53
2022/05/20 00:51:28;;;;;;;34.70;30.73;;;;;;;;;;2074030;28;20232;-52
2022/05/20 00:52:30;;;;;;;35.53;30.55;;;;;;;;;;2074373;28;20199;-54
2022/05/20 00:53:33;;;;;;;32.03;28.73;;;;;;;;;;2074279;28;20201;-53
2022/05/20 00:54:36;;;;;;;35.28;29.88;;;;;;;;;;2073562;28;20204;-54
2022/05/20 00:55:37;;;;;;;33.35;29.80;;;;;;;;;;2073668;28;20176;-52
2022/05/20 00:56:47;;;;;;;33.17;29.75;;;;;;;;;;2074361;28;20191;-52
2022/05/20 00:57:49;;;;;;;33.95;30.25;;;;;;;;;;2074119;28;20173;-56
2022/05/20 00:58:51;;;;;;;37.63;31.95;;;;;;;;;;2074453;28;20169;-56
2022/05/20 00:59:55;;;;;;;36.25;29.05;;;;;;;;;;2073616;28;20239;-56
2022/05/20 01:00:55;;;;;;;41.60;31.23;;;;;;;;;;2073154;28;20605;-54
2022/05/20 01:01:57;;;;;;;33.65;30.13;;;;;;;;;;2073788;28;20224;-56
2022/05/20 01:02:59;;;;;;;33.40;29.25;;;;;;;;;;2074286;28;20804;-54
2022/05/20 01:04:01;;;;;;;39.42;31.33;;;;;;;;;;2074173;28;20264;-48
2022/05/20 01:05:03;;;;;;;35.05;30.25;;;;;;;;;;2074547;28;20261;-54
2022/05/20 01:06:03;;;;;;;35.40;30.85;;;;;;;;;;2074254;28;20575;-56
2022/05/20 01:07:05;;;;;;;35.17;30.80;;;;;;;;;;2074368;28;20227;-52
2022/05/20 01:08:06;;;;;;;35.00;31.17;;;;;;;;;;2074500;28;20165;-53
2022/05/20 01:09:06;;;;;;;38.03;32.05;;;;;;;;;;2074611;28;20169;-54
2022/05/20 01:10:07;;;;;;;38.58;30.90;;;;;;;;;;2074271;28;20260;-54
2022/05/20 01:11:07;;;;;;;38.90;31.02;;;;;;;;;;2074166;28;20169;-54
2022/05/20 01:12:07;;;;;;;34.33;29.83;;;;;;;;;;2077201;28;20205;-53
2022/05/20 01:13:08;;;;;;;36.63;31.48;;;;;;;;;;2073812;28;20814;-55
2022/05/20 01:14:10;;;;;;;37.65;31.02;;;;;;;;;;2081258;28;20176;-53
2022/05/20 01:15:11;;;;;;;34.55;30.85;;;;;;;;;;2081542;28;20176;-53
2022/05/20 01:16:11;;;;;;;34.08;29.27;;;;;;;;;;2081679;28;20168;-52
2022/05/20 01:17:11;;;;;;;32.00;28.70;;;;;;;;;;2073410;28;20172;-52
2022/05/20 01:18:13;;;;;;;35.72;29.00;;;;;;;;;;2065448;28;20180;-54
2022/05/20 01:19:22;;;;;;;31.05;27.77;;;;;;;;;;2070983;28;20165;-57
2022/05/20 01:20:25;;;;;;;30.63;27.48;;;;;;;;;;2073867;28;20167;-52
2022/05/20 01:21:26;;;;;;;35.90;29.08;;;;;;;;;;2073832;28;20208;-55
2022/05/20 01:22:30;;;;;;;32.70;29.17;;;;;;;;;;2074279;28;20181;-55
2022/05/20 01:23:32;;;;;;;33.88;30.05;;;;;;;;;;2073866;28;20565;-55
2022/05/20 01:24:33;;;;;;;33.63;30.13;;;;;;;;;;2073108;28;20682;-52
2022/05/20 01:25:34;;;;;;;36.22;31.45;;;;;;;;;;2073760;28;20169;-55
2022/05/20 01:26:34;;;;;;;36.63;31.60;;;;;;;;;;2073971;28;20184;-52
2022/05/20 01:27:42;;;;;;;33.72;30.02;;;;;;;;;;2074433;28;20702;-56
2022/05/20 01:28:42;;;;;;;35.35;31.30;;;;;;;;;;2074219;28;20201;-54
2022/05/20 01:29:43;;;;;;;37.17;32.30;;;;;;;;;;2074369;28;20189;-58
2022/05/20 01:30:48;;;;;;;36.85;32.25;;;;;;;;;;2074124;28;20161;-52
2022/05/20 01:31:49;;;;;;;36.40;32.53;;;;;;;;;;2074433;28;20212;-56
2022/05/20 01:32:49;;;;;;;34.17;30.25;;;;;;;;;;2074291;28;20654;-57
2022/05/20 01:33:50;;;;;;;33.35;29.75;;;;;;;;;;2074421;28;20606;-55
2022/05/20 01:34:51;;;;;;;33.75;29.73;;;;;;;;;;2073726;28;20184;-56
2022/05/20 01:35:51;;;;;;;35.78;30.88;;;;;;;;;;2073475;28;20184;-51
2022/05/20 01:36:51;;;;;;;35.92;31.60;;;;;;;;;;2074258;28;20176;-52
2022/05/20 01:37:52;;;;;;;34.08;30.08;;;;;;;;;;2074280;28;20227;-51
2022/05/20 01:38:53;;;;;;;38.10;31.75;;;;;;;;;;2073798;28;20173;-59
2022/05/20 01:39:53;;;;;;;37.03;32.22;;;;;;;;;;2073473;28;20173;-54
2022/05/20 01:41:00;;;;;;;39.53;32.25;;;;;;;;;;2073531;28;20637;-52
2022/05/20 01:42:16;;;;;;;34.40;30.75;;;;;;;;;;2074458;28;20192;-52
2022/05/20 01:43:22;;;;;;;33.83;30.20;;;;;;;;;;2074372;28;20179;-56
2022/05/20 01:44:25;;;;;;;33.92;30.00;;;;;;;;;;2073756;28;20584;-58
2022/05/20 01:45:30;;;;;;;33.67;29.73;;;;;;;;;;2073375;28;20191;-55
2022/05/20 01:46:33;;;;;;;34.15;30.55;;;;;;;;;;2074314;28;20180;-55
2022/05/20 01:47:38;;;;;;;32.78;29.38;;;;;;;;;;2074791;28;20173;-52
2022/05/20 01:48:43;;;;;;;32.10;28.85;;;;;;;;;;2072140;28;20517;-54
2022/05/20 01:50:03;;;;;;;32.90;29.08;;;;;;;;;;2073080;28;20173;-55
2022/05/20 01:51:05;;;;;;;34.15;28.95;;;;;;;;;;2074794;28;20211;-51
2022/05/20 01:52:05;;;;;;;30.33;27.25;;;;;;;;;;2081485;28;20196;-54
2022/05/20 01:53:08;;;;;;;32.35;29.02;;;;;;;;;;2081632;28;20179;-54
2022/05/20 01:54:12;;;;;;;30.58;27.35;;;;;;;;;;2080782;28;20633;-54
2022/05/20 01:55:12;;;;;;;30.55;25.70;;;;;;;;;;2074148;28;20612;-58
2022/05/20 01:56:14;;;;;;;29.23;26.13;;;;;;;;;;2073914;28;20181;-53
2022/05/20 01:57:22;;;;;;;28.13;25.10;;;;;;;;;;2074188;28;20625;-56
2022/05/20 01:58:28;;;;;;;27.60;24.85;;;;;;;;;;2073825;28;20612;-51
2022/05/20 01:59:34;;;;;;;27.90;25.17;;;;;;;;;;2073400;28;20172;-55
2022/05/20 02:00:35;;;;;;;27.30;24.52;;;;;;;;;;2065296;28;20599;-51
2022/05/20 02:01:38;;;;;;;28.73;25.77;;;;;;;;;;2066224;28;20292;-56
2022/05/20 02:02:53;;;;;;;28.40;25.23;;;;;;;;;;2070617;28;20177;-54
2022/05/20 02:03:55;;;;;;;27.73;24.92;;;;;;;;;;2072023;28;20208;-58
2022/05/20 02:05:00;;;;;;;27.13;24.35;;;;;;;;;;2064735;28;20173;-53
2022/05/20 02:06:03;;;;;;;26.48;23.85;;;;;;;;;;2068133;28;20165;-54
2022/05/20 02:07:05;;;;;;;26.13;23.42;;;;;;;;;;2069029;28;20177;-55
2022/05/20 02:08:09;;;;;;;26.27;23.50;;;;;;;;;;2070140;28;20177;-51
2022/05/20 02:09:12;;;;;;;25.10;22.48;;;;;;;;;;2070699;28;20184;-51
2022/05/20 02:10:20;;;;;;;27.67;21.95;;;;;;;;;;2073072;28;20169;-55
2022/05/20 02:11:25;;;;;;;23.05;20.83;;;;;;;;;;2071589;28;20193;-54
2022/05/20 02:12:26;;;;;;;24.52;22.08;;;;;;;;;;2072119;28;20658;-55
2022/05/20 02:13:27;;;;;;;25.13;22.70;;;;;;;;;;2072394;28;20196;-54
2022/05/20 02:14:35;;;;;;;23.88;21.52;;;;;;;;;;2076438;28;20287;-54
2022/05/20 02:15:39;;;;;;;25.90;23.20;;;;;;;;;;2069849;28;20514;-59
2022/05/20 02:16:41;;;;;;;24.40;21.63;;;;;;;;;;2076467;28;20332;-54
2022/05/20 02:17:43;;;;;;;25.17;22.55;;;;;;;;;;2075047;28;20184;-55
2022/05/20 02:19:07;;;;;;;24.38;21.77;;;;;;;;;;2074696;28;20177;-58
2022/05/20 02:20:13;;;;;;;22.50;20.25;;;;;;;;;;2053899;28;20201;-54
2022/05/20 02:21:15;;;;;;;23.38;21.23;;;;;;;;;;2071691;28;20270;-53
2022/05/20 02:22:18;;;;;;;24.00;21.45;;;;;;;;;;2074430;28;20204;-58
2022/05/20 02:23:20;;;;;;;24.13;21.35;;;;;;;;;;2074393;28;20177;-56
2022/05/20 02:24:22;;;;;;;21.85;19.88;;;;;;;;;;2072830;28;20181;-55
2022/05/20 02:25:26;;;;;;;24.63;21.20;;;;;;;;;;2081381;28;20605;-56
2022/05/20 02:26:28;;;;;;;22.88;20.15;;;;;;;;;;2081556;28;20189;-56
2022/05/20 02:27:32;;;;;;;22.73;20.52;;;;;;;;;;2072458;28;20287;-59
2022/05/20 02:28:34;;;;;;;23.73;21.27;;;;;;;;;;2073172;28;20221;-55
2022/05/20 02:29:37;;;;;;;23.45;21.13;;;;;;;;;;2074104;28;20169;-56
2022/05/20 02:30:38;;;;;;;23.65;21.27;;;;;;;;;;2073788;28;20181;-55
2022/05/20 02:31:52;;;;;;;24.70;22.48;;;;;;;;;;2075127;28;20677;-55
2022/05/20 02:32:55;;;;;;;23.42;21.17;;;;;;;;;;2070897;28;20161;-56
2022/05/20 02:33:55;;;;;;;24.23;21.73;;;;;;;;;;2074303;28;20196;-54
2022/05/20 02:34:55;;;;;;;24.75;22.25;;;;;;;;;;2073720;28;20193;-53
2022/05/20 02:36:16;;;;;;;24.02;21.48;;;;;;;;;;2073228;28;20177;-57
2022/05/20 02:37:17;;;;;;;27.70;24.02;;;;;;;;;;2078627;28;20259;-55
2022/05/20 02:38:19;;;;;;;23.55;21.25;;;;;;;;;;2081975;28;20179;-57
2022/05/20 02:39:21;;;;;;;24.75;22.17;;;;;;;;;;2073912;28;20711;-57
2022/05/20 02:40:21;;;;;;;23.40;20.98;;;;;;;;;;2073559;28;20231;-55
2022/05/20 02:41:21;;;;;;;24.48;22.08;;;;;;;;;;2072750;28;20648;-53
2022/05/20 02:42:22;;;;;;;23.63;21.25;;;;;;;;;;2073142;28;20267;-57
2022/05/20 02:43:22;;;;;;;23.60;21.38;;;;;;;;;;2073751;28;20196;-55
2022/05/20 02:44:22;;;;;;;22.80;20.50;;;;;;;;;;2072791;28;20201;-53
2022/05/20 02:45:23;;;;;;;23.58;21.30;;;;;;;;;;2073337;28;20169;-54
2022/05/20 02:46:23;;;;;;;23.42;21.17;;;;;;;;;;2073525;28;20645;-56
2022/05/20 02:47:23;;;;;;;23.77;21.33;;;;;;;;;;2073484;28;20722;-54
2022/05/20 02:48:24;;;;;;;22.52;20.23;;;;;;;;;;2073068;28;20282;-54
2022/05/20 02:49:24;;;;;;;21.42;19.42;;;;;;;;;;2073369;28;20203;-56
2022/05/20 02:50:25;;;;;;;22.38;20.17;;;;;;;;;;2081730;28;20499;-54
2022/05/20 02:51:25;;;;;;;22.55;20.20;;;;;;;;;;2081745;28;20180;-54
2022/05/20 02:52:25;;;;;;;22.92;20.58;;;;;;;;;;2077776;28;20169;-52
2022/05/20 02:53:25;;;;;;;22.88;20.67;;;;;;;;;;2073626;28;20703;-51
2022/05/20 02:54:26;;;;;;;23.15;20.73;;;;;;;;;;2073166;28;20173;-53
2022/05/20 02:55:26;;;;;;;23.70;21.27;;;;;;;;;;2071745;28;20263;-53
2022/05/20 02:56:27;;;;;;;26.83;24.13;;;;;;;;;;2072302;28;20664;-55
2022/05/20 02:57:27;;;;;;;27.52;24.85;;;;;;;;;;2073253;28;20188;-58
2022/05/20 03:05:03;;;;;;;22.65;19.98;;;;;;;;;;2073414;28;20543;-53
2022/05/20 03:06:03;;;;;;;22.63;20.35;;;;;;;;;;2073595;28;20176;-51
2022/05/20 03:07:03;;;;;;;20.52;18.67;;;;;;;;;;2073576;28;20556;-55
2022/05/20 03:08:04;;;;;;;20.80;18.80;;;;;;;;;;2073678;28;20256;-55
2022/05/20 03:09:06;;;;;;;21.80;19.70;;;;;;;;;;2073587;28;20584;-55
2022/05/20 03:10:06;;;;;;;23.65;21.25;;;;;;;;;;2073877;28;20199;-51
2022/05/20 03:11:06;;;;;;;23.48;21.08;;;;;;;;;;2073714;28;20252;-54
2022/05/20 03:12:07;;;;;;;23.52;21.35;;;;;;;;;;2073571;28;20247;-51
2022/05/20 03:13:07;;;;;;;22.00;19.75;;;;;;;;;;2073664;28;20239;-53
2022/05/20 03:14:09;;;;;;;20.58;18.63;;;;;;;;;;2072889;28;20280;-50
2022/05/20 03:15:11;;;;;;;19.17;17.42;;;;;;;;;;2073473;28;20168;-52
2022/05/20 03:16:12;;;;;;;19.02;17.13;;;;;;;;;;2073759;28;20169;-52
2022/05/20 03:17:12;;;;;;;19.65;17.83;;;;;;;;;;2073446;28;20607;-56
2022/05/20 03:18:13;;;;;;;19.90;18.00;;;;;;;;;;2073713;28;20165;-55
2022/05/20 03:19:13;;;;;;;19.50;17.20;;;;;;;;;;2072419;28;20187;-52
2022/05/20 03:20:13;;;;;;;19.42;17.02;;;;;;;;;;2073044;28;20172;-55
2022/05/20 03:21:14;;;;;;;18.70;16.55;;;;;;;;;;2073303;28;20208;-53
2022/05/20 03:22:14;;;;;;;18.15;16.42;;;;;;;;;;2073560;28;20320;-52
2022/05/20 03:23:14;;;;;;;16.42;14.77;;;;;;;;;;2073161;28;20231;-55
2022/05/20 03:24:15;;;;;;;17.50;15.80;;;;;;;;;;2072850;28;20180;-53
2022/05/20 03:25:15;;;;;;;17.35;15.55;;;;;;;;;;2073726;28;20184;-53
2022/05/20 03:26:15;;;;;;;19.65;16.80;;;;;;;;;;2073677;28;20554;-52
2022/05/20 03:27:18;;;;;;;18.45;16.63;;;;;;;;;;2073471;28;20675;-51
2022/05/20 03:28:19;;;;;;;18.98;16.98;;;;;;;;;;2073500;28;20188;-54
2022/05/20 03:29:19;;;;;;;18.08;16.33;;;;;;;;;;2073683;28;20663;-53
2022/05/20 03:30:19;;;;;;;18.88;16.88;;;;;;;;;;2067983;28;20174;-55
2022/05/20 03:31:19;;;;;;;17.55;15.98;;;;;;;;;;2065529;28;20268;-55
2022/05/20 03:32:20;;;;;;;18.10;16.38;;;;;;;;;;2064974;28;20208;-51
2022/05/20 03:33:20;;;;;;;18.38;16.50;;;;;;;;;;2067061;28;20169;-51
2022/05/20 03:34:20;;;;;;;17.13;15.52;;;;;;;;;;2073064;28;20180;-51
2022/05/20 03:35:21;;;;;;;18.73;16.85;;;;;;;;;;2073257;28;20204;-53
2022/05/20 03:36:21;;;;;;;16.92;15.48;;;;;;;;;;2072993;28;20187;-53
2022/05/20 03:37:21;;;;;;;18.48;16.77;;;;;;;;;;2073589;28;20177;-52
2022/05/20 03:38:21;;;;;;;17.70;15.85;;;;;;;;;;2073605;28;20172;-54
2022/05/20 03:39:23;;;;;;;18.55;16.65;;;;;;;;;;2073404;28;20537;-52
2022/05/20 03:40:23;;;;;;;18.52;16.83;;;;;;;;;;2073332;28;20235;-55
2022/05/20 03:41:24;;;;;;;18.08;16.48;;;;;;;;;;2078942;28;20576;-56
2022/05/20 03:42:24;;;;;;;18.80;15.88;;;;;;;;;;2073162;28;20187;-53
2022/05/20 03:43:24;;;;;;;17.52;15.98;;;;;;;;;;2073189;28;20214;-52
2022/05/20 03:44:25;;;;;;;17.65;15.88;;;;;;;;;;2072886;28;20176;-53
2022/05/20 03:45:25;;;;;;;20.88;18.05;;;;;;;;;;2073402;28;20283;-57
2022/05/20 03:46:26;;;;;;;19.17;17.40;;;;;;;;;;2073361;28;20173;-53
2022/05/20 03:47:26;;;;;;;19.05;17.00;;;;;;;;;;2073367;28;20165;-54
2022/05/20 03:48:27;;;;;;;18.00;16.30;;;;;;;;;;2072447;28;20181;-52
2022/05/20 03:49:28;;;;;;;16.75;15.10;;;;;;;;;;2066068;28;20169;-56
2022/05/20 03:50:28;;;;;;;17.58;15.88;;;;;;;;;;2082168;28;20271;-54
2022/05/20 03:51:28;;;;;;;16.52;15.07;;;;;;;;;;2081852;28;20211;-54
2022/05/20 03:52:28;;;;;;;15.75;14.07;;;;;;;;;;2081692;28;20234;-55
2022/05/20 03:53:29;;;;;;;15.25;13.95;;;;;;;;;;2077793;28;20681;-53
2022/05/20 03:54:31;;;;;;;16.27;14.73;;;;;;;;;;2072666;28;20731;-54
2022/05/20 03:55:32;;;;;;;15.70;14.20;;;;;;;;;;2073939;28;20184;-50
2022/05/20 03:56:32;;;;;;;16.48;13.68;;;;;;;;;;2073591;28;20267;-52
2022/05/20 03:57:32;;;;;;;15.88;14.32;;;;;;;;;;2073636;28;20231;-52
2022/05/20 03:58:33;;;;;;;18.40;14.68;;;;;;;;;;2073441;28;20187;-57
2022/05/20 03:59:36;;;;;;;15.50;14.00;;;;;;;;;;2073953;28;20165;-51
2022/05/20 04:01:56;;;;;;;16.27;13.63;;;;;;;;;;2073444;28;20188;-53
2022/05/20 04:01:57;;;;;;;15.75;14.18;;;;;;;;;;2073539;28;20192;-53
2022/05/20 04:02:58;;;;;;;15.38;13.95;;;;;;;;;;2073525;28;20181;-52
2022/05/20 04:03:58;;;;;;;14.88;13.43;;;;;;;;;;2073102;28;20173;-56
2022/05/20 04:04:59;;;;;;;16.10;14.60;;;;;;;;;;2073945;28;20542;-57
2022/05/20 04:06:00;;;;;;;15.93;14.40;;;;;;;;;;2073803;28;20551;-52
2022/05/20 04:07:02;;;;;;;16.83;15.10;;;;;;;;;;2073048;28;20787;-53
2022/05/20 04:08:02;;;;;;;15.82;14.23;;;;;;;;;;2073761;28;20169;-49
2022/05/20 04:09:05;;;;;;;16.30;14.07;;;;;;;;;;2073734;28;20697;-52
2022/05/20 04:10:08;;;;;;;16.02;14.63;;;;;;;;;;2073459;28;20559;-52
2022/05/20 04:11:11;;;;;;;15.57;13.98;;;;;;;;;;2073589;28;20185;-54
2022/05/20 04:12:24;;;;;;;17.50;15.73;;;;;;;;;;2073639;28;20173;-56
2022/05/20 04:13:24;;;;;;;17.88;14.80;;;;;;;;;;2072642;28;20185;-54
2022/05/20 04:14:28;;;;;;;16.33;14.70;;;;;;;;;;2072513;28;20201;-52
2022/05/20 04:15:28;;;;;;;17.02;15.32;;;;;;;;;;2073213;28;20184;-55
2022/05/20 04:16:28;;;;;;;16.17;14.55;;;;;;;;;;2073258;28;20184;-53
2022/05/20 04:17:29;;;;;;;15.27;13.82;;;;;;;;;;2072501;28;20198;-55
2022/05/20 04:18:29;;;;;;;15.13;13.60;;;;;;;;;;2072614;28;20189;-54
2022/05/20 04:19:30;;;;;;;14.90;13.40;;;;;;;;;;2073136;28;20184;-53
2022/05/20 04:20:31;;;;;;;15.32;13.70;;;;;;;;;;2073280;28;20243;-52
2022/05/20 04:21:31;;;;;;;16.27;14.57;;;;;;;;;;2072898;28;20197;-54
2022/05/20 04:22:33;;;;;;;14.93;13.63;;;;;;;;;;2072916;28;20173;-55
2022/05/20 04:23:33;;;;;;;15.50;14.05;;;;;;;;;;2072875;28;20650;-53
2022/05/20 04:24:34;;;;;;;15.65;14.13;;;;;;;;;;2072792;28;20214;-56
2022/05/20 04:25:34;;;;;;;15.50;13.95;;;;;;;;;;2067350;28;20236;-52
2022/05/20 04:26:35;;;;;;;14.70;13.18;;;;;;;;;;2081295;28;20619;-54
2022/05/20 04:27:35;;;;;;;15.52;14.02;;;;;;;;;;2072985;28;20189;-55
2022/05/20 04:28:35;;;;;;;14.63;13.30;;;;;;;;;;2077966;28;20158;-52
2022/05/20 04:29:36;;;;;;;14.73;13.27;;;;;;;;;;2080711;28;20180;-51
2022/05/20 04:30:36;;;;;;;13.80;12.60;;;;;;;;;;2072410;28;20199;-50
2022/05/20 04:31:41;;;;;;;14.77;13.38;;;;;;;;;;2081206;28;20215;-53
2022/05/20 04:32:41;;;;;;;14.15;12.77;;;;;;;;;;2074199;28;20169;-52
2022/05/20 04:33:42;;;;;;;14.88;13.38;;;;;;;;;;2077443;28;20231;-52
2022/05/20 04:34:42;;;;;;;14.30;13.02;;;;;;;;;;2072828;28;20185;-53
2022/05/20 04:35:42;;;;;;;14.93;13.57;;;;;;;;;;2073379;28;20172;-54
2022/05/20 04:36:43;;;;;;;15.18;13.68;;;;;;;;;;2074382;28;20173;-58
2022/05/20 04:37:43;;;;;;;14.75;13.27;;;;;;;;;;2074382;28;20227;-52
2022/05/20 04:38:43;;;;;;;14.02;12.63;;;;;;;;;;2065576;28;20678;-54
2022/05/20 04:39:44;;;;;;;15.07;13.63;;;;;;;;;;2066018;28;20169;-51
2022/05/20 04:40:44;;;;;;;14.63;13.18;;;;;;;;;;2074080;28;20665;-53
2022/05/20 04:46:57;;;;;;;15.55;14.15;;;;;;;;;;2066525;28;20150;-53
2022/05/20 04:48:00;;;;;;;14.82;13.45;;;;;;;;;;2066604;28;20224;-52
2022/05/20 04:49:00;;;;;;;14.93;13.68;;;;;;;;;;2073678;28;20167;-52
2022/05/20 04:50:01;;;;;;;14.35;12.95;;;;;;;;;;2078611;28;20231;-55
2022/05/20 04:51:01;;;;;;;15.48;14.13;;;;;;;;;;2073660;28;20568;-52
2022/05/20 04:52:01;;;;;;;14.00;12.65;;;;;;;;;;2081908;28;20192;-57
2022/05/20 04:53:02;;;;;;;14.25;12.95;;;;;;;;;;2082559;28;20176;-52
2022/05/20 04:55:21;;;;;;;14.05;12.85;;;;;;;;;;2074449;28;20172;-55
2022/05/20 04:56:21;;;;;;;16.50;14.13;;;;;;;;;;2074500;28;20652;-53
2022/05/20 04:57:27;;;;;;;14.50;13.10;;;;;;;;;;2074350;28;20622;-54
2022/05/20 04:58:28;;;;;;;15.07;13.63;;;;;;;;;;2074391;28;20173;-51
2022/05/20 04:59:28;;;;;;;16.30;13.82;;;;;;;;;;2074497;28;20665;-57
2022/05/20 05:00:30;;;;;;;16.38;14.77;;;;;;;;;;2074568;28;20177;-55
2022/05/20 05:01:30;;;;;;;14.48;13.20;;;;;;;;;;2072708;28;20213;-51
2022/05/20 05:02:31;;;;;;;14.38;13.07;;;;;;;;;;2074374;28;20169;-52
2022/05/20 05:03:31;;;;;;;15.70;13.93;;;;;;;;;;2073912;28;20188;-52
2022/05/20 05:04:31;;;;;;;15.10;13.75;;;;;;;;;;2073389;28;20184;-54
2022/05/20 05:05:32;;;;;;;14.35;12.90;;;;;;;;;;2073732;28;20173;-49
2022/05/20 05:06:32;;;;;;;13.75;12.50;;;;;;;;;;2073883;28;20165;-50
2022/05/20 05:07:35;;;;;;;14.07;12.75;;;;;;;;;;2074133;28;20169;-53
2022/05/20 05:08:35;;;;;;;14.70;13.38;;;;;;;;;;2074386;28;20161;-54
2022/05/20 05:09:36;;;;;;;13.68;12.32;;;;;;;;;;2074284;28;20161;-56
2022/05/20 05:10:36;;;;;;;13.68;12.38;;;;;;;;;;2074361;28;20204;-53
2022/05/20 05:11:39;;;;;;;14.90;13.43;;;;;;;;;;2073576;28;20601;-51
2022/05/20 05:12:40;;;;;;;15.07;13.43;;;;;;;;;;2073732;28;20176;-55
2022/05/20 05:13:40;;;;;;;14.25;12.95;;;;;;;;;;2074177;28;20165;-55
2022/05/20 05:14:42;;;;;;;15.57;14.10;;;;;;;;;;2073935;28;20255;-51
2022/05/20 05:15:43;;;;;;;14.10;12.90;;;;;;;;;;2074133;28;20276;-51
2022/05/20 05:16:44;;;;;;;14.05;12.70;;;;;;;;;;2073407;28;20176;-57
2022/05/20 05:19:03;;;;;;;14.50;13.10;;;;;;;;;;2073876;28;20161;-55
2022/05/20 05:20:05;;;;;;;18.33;13.70;;;;;;;;;;2074328;28;20177;-54
2022/05/20 05:21:05;;;;;;;14.35;13.15;;;;;;;;;;2074215;28;20247;-53
2022/05/20 05:22:06;;;;;;;15.27;13.40;;;;;;;;;;2094275;22;20240;-54
2022/05/20 05:23:06;;;;;;;16.40;14.57;;;;;;;;;;2067891;28;20200;-53
2022/05/20 05:24:07;;;;;;;14.25;12.95;;;;;;;;;;2068771;28;20631;-54
2022/05/20 05:25:12;;;;;;;19.00;14.48;;;;;;;;;;2071478;28;20822;-56
2022/05/20 05:26:13;;;;;;;15.43;13.93;;;;;;;;;;2068543;28;20174;-50
2022/05/20 05:27:13;;;;;;;14.82;13.43;;;;;;;;;;2075878;28;20224;-51
2022/05/20 05:28:14;;;;;;;14.60;13.18;;;;;;;;;;2068501;28;20647;-56
2022/05/20 05:29:14;;;;;;;14.48;13.07;;;;;;;;;;2067729;28;20174;-56
2022/05/20 05:30:15;;;;;;;16.02;14.55;;;;;;;;;;2067869;28;20181;-57
2022/05/20 05:31:16;;;;;;;15.45;13.95;;;;;;;;;;2063162;28;20240;-52
2022/05/20 05:32:16;;;;;;;16.05;14.45;;;;;;;;;;2064180;28;20273;-53
2022/05/20 05:33:17;;;;;;;36.30;16.00;;;;;;;;;;2059010;28;20722;-51
2022/05/20 05:34:18;;;;;;;29.70;14.60;;;;;;;;;;2066715;28;20193;-53
2022/05/20 05:35:22;;;;;;;29.13;14.80;;;;;;;;;;2067950;28;20177;-58
2022/05/20 05:36:23;;;;;;;17.55;15.88;;;;;;;;;;2067767;28;20617;-56
2022/05/20 05:37:23;;;;;;;49.97;15.55;;;;;;;;;;2067212;28;20186;-52
2022/05/20 05:38:23;;;;;;;15.35;13.82;;;;;;;;;;2067643;28;20181;-55
2022/05/20 05:39:24;;;;;;;88.85;19.65;;;;;;;;;;2066224;28;20237;-54
2022/05/20 05:40:25;;;;;;;23.52;14.48;;;;;;;;;;2059576;28;20269;-56
2022/05/20 05:41:26;;;;;;;15.43;13.65;;;;;;;;;;2066335;28;20193;-53
2022/05/20 05:42:28;;;;;;;15.82;13.30;;;;;;;;;;2066545;28;20216;-51
2022/05/20 05:43:28;;;;;;;16.55;13.82;;;;;;;;;;2066664;28;20166;-51
2022/05/20 05:44:28;;;;;;;14.35;13.05;;;;;;;;;;2068614;28;20181;-55
2022/05/20 05:45:30;;;;;;;18.15;14.52;;;;;;;;;;2069934;28;20173;-55
2022/05/20 05:46:30;;;;;;;14.82;13.52;;;;;;;;;;2068510;28;20547;-54
2022/05/20 05:47:31;;;;;;;22.30;15.20;;;;;;;;;;2065802;28;20174;-54
2022/05/20 05:48:31;;;;;;;15.85;14.40;;;;;;;;;;2066429;28;20237;-55
2022/05/20 05:49:31;;;;;;;21.40;14.70;;;;;;;;;;2065949;28;20603;-56
2022/05/20 05:50:32;;;;;;;34.65;16.23;;;;;;;;;;2066165;28;20201;-56
2022/05/20 05:51:33;;;;;;;36.10;16.63;;;;;;;;;;2066189;28;20186;-53
2022/05/20 05:52:34;;;;;;;16.67;15.07;;;;;;;;;;2066890;28;20189;-56
2022/05/20 05:53:34;;;;;;;16.88;15.27;;;;;;;;;;2067155;28;20608;-53
2022/05/20 05:54:35;;;;;;;17.90;15.05;;;;;;;;;;2065904;28;20213;-54
2022/05/20 05:55:35;;;;;;;17.48;15.10;;;;;;;;;;2066321;28;20169;-54
2022/05/20 05:56:36;;;;;;;16.88;15.30;;;;;;;;;;2064796;28;20188;-55
2022/05/20 05:57:36;;;;;;;17.60;15.77;;;;;;;;;;2065414;28;20177;-55
2022/05/20 05:58:37;;;;;;;16.08;14.23;;;;;;;;;;2065803;28;20236;-54
2022/05/20 05:59:37;;;;;;;17.27;14.40;;;;;;;;;;2066190;28;20261;-55
2022/05/20 06:00:38;;;;;;;17.15;15.35;;;;;;;;;;2065487;28;20724;-54
2022/05/20 06:01:38;;;;;;;15.93;14.40;;;;;;;;;;2065004;28;20332;-61
2022/05/20 06:02:38;;;;;;;18.98;15.35;;;;;;;;;;2073233;28;20185;-57
2022/05/20 06:03:38;;;;;;;17.60;15.75;;;;;;;;;;2072158;28;20174;-54
2022/05/20 06:04:39;;;;;;;17.38;15.80;;;;;;;;;;2069092;28;20214;-56
2022/05/20 06:05:39;;;;;;;19.27;17.10;;;;;;;;;;2067187;28;20173;-56
2022/05/20 06:06:39;;;;;;;17.92;16.23;;;;;;;;;;2065974;28;20210;-55
2022/05/20 06:07:40;;;;;;;19.05;16.70;;;;;;;;;;2066353;28;20197;-54
2022/05/20 06:08:40;;;;;;;18.23;16.02;;;;;;;;;;2066659;28;20165;-57
2022/05/20 06:09:40;;;;;;;19.63;17.67;;;;;;;;;;2066968;28;20177;-55
2022/05/20 06:10:42;;;;;;;19.75;16.25;;;;;;;;;;2066289;28;20170;-54
2022/05/20 06:11:43;;;;;;;19.85;15.90;;;;;;;;;;2058380;28;20644;-59
2022/05/20 06:12:43;;;;;;;18.30;16.60;;;;;;;;;;2059027;28;20170;-59